createdAt,value
2023-05-27T00:00:09.835Z,7.80
2023-05-27T00:01:03.080Z,7.20
2023-05-27T00:01:36.808Z,7.90
2023-05-27T00:02:10.019Z,7.70
2023-05-27T00:02:43.581Z,8.30
2023-05-27T00:03:17.135Z,7.80
2023-05-27T00:03:50.793Z,7.90
2023-05-27T00:04:24.100Z,8.00
2023-05-27T00:05:00.014Z,7.70
2023-05-27T00:05:33.356Z,7.80
2023-05-27T00:06:09.043Z,8.30
2023-05-27T00:06:42.434Z,7.60
2023-05-27T00:07:15.741Z,7.80
2023-05-27T00:07:48.971Z,7.50
2023-05-27T00:08:22.337Z,7.70
2023-05-27T00:08:56.160Z,7.90
2023-05-27T00:09:29.494Z,7.80
2023-05-27T00:10:03.283Z,8.00
2023-05-27T00:10:36.791Z,7.90
2023-05-27T00:11:09.954Z,7.90
2023-05-27T00:11:43.288Z,7.90
2023-05-27T00:12:16.903Z,7.70
2023-05-27T00:12:52.388Z,7.70
2023-05-27T00:13:28.822Z,7.80
2023-05-27T00:14:03.807Z,7.90
2023-05-27T00:14:37.148Z,7.50
2023-05-27T00:15:10.913Z,7.90
2023-05-27T00:15:44.625Z,8.10
2023-05-27T00:16:18.009Z,7.60
2023-05-27T00:16:52.520Z,7.50
2023-05-27T00:17:26.511Z,8.10
2023-05-27T00:18:04.883Z,8.10
2023-05-27T00:18:40.622Z,8.00
2023-05-27T00:19:14.239Z,8.10
2023-05-27T00:19:48.955Z,7.80
2023-05-27T00:20:23.967Z,8.30
2023-05-27T00:20:58.330Z,8.00
2023-05-27T00:21:31.525Z,8.00
2023-05-27T00:22:04.949Z,7.60
2023-05-27T00:22:38.413Z,8.00
2023-05-27T00:23:11.673Z,8.10
2023-05-27T00:23:48.417Z,8.80
2023-05-27T00:24:21.653Z,8.30
2023-05-27T00:24:55.039Z,8.10
2023-05-27T00:25:28.282Z,8.40
2023-05-27T00:26:01.585Z,8.00
2023-05-27T00:26:34.988Z,8.40
2023-05-27T00:27:10.573Z,8.30
2023-05-27T00:27:43.862Z,8.10
2023-05-27T00:28:17.282Z,8.10
2023-05-27T00:28:50.821Z,8.50
2023-05-27T00:29:25.892Z,8.20
2023-05-27T00:29:59.222Z,7.90
2023-05-27T00:30:33.094Z,8.10
2023-05-27T00:31:06.361Z,8.10
2023-05-27T00:31:39.714Z,7.90
2023-05-27T00:32:13.250Z,8.00
2023-05-27T00:32:47.085Z,7.90
2023-05-27T00:33:20.812Z,8.40
2023-05-27T00:33:54.351Z,8.20
2023-05-27T00:34:27.685Z,8.10
2023-05-27T00:35:00.941Z,7.80
2023-05-27T00:35:34.624Z,8.00
2023-05-27T00:36:08.776Z,7.70
2023-05-27T00:36:42.222Z,7.90
2023-05-27T00:37:15.677Z,7.80
2023-05-27T00:37:48.901Z,8.10
2023-05-27T00:38:22.595Z,8.00
2023-05-27T00:38:55.886Z,7.80
2023-05-27T00:39:29.268Z,7.80
2023-05-27T00:40:02.515Z,7.80
2023-05-27T00:40:39.079Z,7.20
2023-05-27T00:41:13.973Z,7.70
2023-05-27T00:41:50.747Z,7.70
2023-05-27T00:42:24.956Z,7.40
2023-05-27T00:43:04.435Z,7.60
2023-05-27T00:43:37.775Z,7.30
2023-05-27T00:44:11.551Z,7.40
2023-05-27T00:44:44.861Z,7.70
2023-05-27T00:45:18.362Z,7.50
2023-05-27T00:45:52.009Z,7.60
2023-05-27T00:46:25.605Z,7.50
2023-05-27T00:46:59.007Z,7.60
2023-05-27T00:47:34.693Z,7.50
2023-05-27T00:48:08.315Z,7.50
2023-05-27T00:48:41.762Z,7.40
2023-05-27T00:49:15.292Z,7.60
2023-05-27T00:49:49.759Z,7.70
2023-05-27T00:50:23.391Z,7.00
2023-05-27T00:50:57.157Z,7.60
2023-05-27T00:51:30.976Z,7.40
2023-05-27T00:52:04.492Z,7.10
2023-05-27T00:52:38.076Z,7.30
2023-05-27T00:53:11.357Z,7.10
2023-05-27T00:53:45.801Z,7.30
2023-05-27T00:54:19.725Z,7.20
2023-05-27T00:54:54.721Z,7.00
2023-05-27T00:55:28.279Z,7.60
2023-05-27T00:56:02.644Z,7.50
2023-05-27T00:56:38.026Z,7.10
2023-05-27T00:57:12.218Z,7.50
2023-05-27T00:57:45.799Z,6.90
2023-05-27T00:58:22.242Z,7.30
2023-05-27T00:58:55.754Z,7.00
2023-05-27T00:59:29.247Z,6.70
2023-05-27T01:00:03.820Z,7.40
2023-05-27T01:00:39.803Z,6.90
2023-05-27T01:01:13.537Z,7.20
2023-05-27T01:01:47.199Z,7.30
2023-05-27T01:02:21.987Z,7.30
2023-05-27T01:02:56.008Z,7.10
2023-05-27T01:03:30.255Z,7.30
2023-05-27T01:04:04.586Z,6.90
2023-05-27T01:04:38.102Z,7.30
2023-05-27T01:05:14.303Z,7.30
2023-05-27T01:05:47.960Z,7.30
2023-05-27T01:06:33.390Z,7.60
2023-05-27T01:07:23.644Z,7.50
2023-05-27T01:08:06.017Z,7.10
2023-05-27T01:09:04.661Z,8.00
2023-05-27T01:09:59.500Z,7.30
2023-05-27T01:10:46.898Z,7.00
2023-05-27T01:11:25.563Z,7.50
2023-05-27T01:12:09.265Z,7.30
2023-05-27T01:12:56.490Z,7.40
2023-05-27T01:13:39.778Z,7.50
2023-05-27T01:14:16.296Z,7.20
2023-05-27T01:14:51.953Z,7.60
2023-05-27T01:15:27.311Z,7.20
2023-05-27T01:16:03.028Z,7.50
2023-05-27T01:16:45.232Z,7.30
2023-05-27T01:17:20.967Z,7.70
2023-05-27T01:17:57.843Z,6.90
2023-05-27T01:18:34.441Z,7.60
2023-05-27T01:19:16.099Z,7.70
2023-05-27T01:19:51.549Z,7.40
2023-05-27T01:20:26.484Z,7.40
2023-05-27T01:21:06.992Z,7.30
2023-05-27T01:21:41.064Z,7.20
2023-05-27T01:22:16.157Z,7.10
2023-05-27T01:22:53.518Z,6.80
2023-05-27T01:23:26.958Z,7.00
2023-05-27T01:24:04.841Z,7.10
2023-05-27T01:24:38.699Z,7.20
2023-05-27T01:25:12.049Z,7.40
2023-05-27T01:25:46.149Z,6.80
2023-05-27T01:26:19.723Z,7.30
2023-05-27T01:26:54.196Z,7.40
2023-05-27T01:27:27.497Z,7.10
2023-05-27T01:28:00.739Z,7.10
2023-05-27T01:28:34.385Z,7.70
2023-05-27T01:29:07.655Z,7.10
2023-05-27T01:29:42.507Z,7.50
2023-05-27T01:30:17.398Z,7.40
2023-05-27T01:30:56.349Z,7.30
2023-05-27T01:31:36.536Z,7.40
2023-05-27T01:32:16.914Z,7.30
2023-05-27T01:32:52.752Z,7.10
2023-05-27T01:33:31.972Z,7.10
2023-05-27T01:34:10.824Z,7.00
2023-05-27T01:35:14.408Z,7.10
2023-05-27T01:35:59.737Z,7.40
2023-05-27T01:36:39.044Z,7.20
2023-05-27T01:37:18.434Z,7.40
2023-05-27T01:37:54.344Z,7.30
2023-05-27T01:38:30.217Z,7.00
2023-05-27T01:39:06.337Z,6.80
2023-05-27T01:39:40.814Z,6.50
2023-05-27T01:40:15.912Z,7.00
2023-05-27T01:40:50.644Z,6.80
2023-05-27T01:41:24.024Z,7.00
2023-05-27T01:41:59.434Z,7.40
2023-05-27T01:42:35.858Z,7.00
2023-05-27T01:43:10.521Z,6.90
2023-05-27T01:43:46.147Z,6.90
2023-05-27T01:44:20.148Z,6.80
2023-05-27T01:44:57.600Z,7.30
2023-05-27T01:45:31.645Z,7.20
2023-05-27T01:46:04.971Z,7.10
2023-05-27T01:46:38.340Z,7.40
2023-05-27T01:47:12.174Z,6.80
2023-05-27T01:47:48.734Z,7.30
2023-05-27T01:48:22.125Z,7.20
2023-05-27T01:48:55.306Z,7.80
2023-05-27T01:51:18.742Z,7.30
2023-05-27T01:51:52.309Z,7.50
2023-05-27T01:52:26.170Z,7.00
2023-05-27T01:52:59.553Z,7.50
2023-05-27T01:53:33.150Z,7.60
2023-05-27T01:54:06.542Z,7.50
2023-05-27T01:54:40.766Z,7.00
2023-05-27T01:55:15.286Z,7.00
2023-05-27T01:55:49.117Z,7.00
2023-05-27T01:56:24.610Z,7.40
2023-05-27T01:56:58.124Z,7.70
2023-05-27T01:57:31.487Z,7.10
2023-05-27T01:58:06.581Z,7.30
2023-05-27T01:58:39.968Z,7.10
2023-05-27T01:59:13.297Z,7.30
2023-05-27T01:59:47.057Z,7.70
2023-05-27T02:00:25.699Z,6.60
2023-05-27T02:00:59.096Z,7.00
2023-05-27T02:01:35.176Z,7.20
2023-05-27T02:02:09.213Z,7.10
2023-05-27T02:02:42.880Z,6.90
2023-05-27T02:03:16.528Z,7.10
2023-05-27T02:03:51.377Z,6.90
2023-05-27T02:04:24.820Z,7.30
2023-05-27T02:04:58.164Z,8.10
2023-05-27T02:05:31.488Z,7.50
2023-05-27T02:06:05.099Z,7.50
2023-05-27T02:06:38.799Z,7.70
2023-05-27T02:07:12.121Z,7.70
2023-05-27T02:07:45.502Z,7.80
2023-05-27T02:08:18.844Z,7.30
2023-05-27T02:08:52.442Z,7.70
2023-05-27T02:09:25.779Z,7.80
2023-05-27T02:10:00.385Z,7.40
2023-05-27T02:10:33.871Z,7.80
2023-05-27T02:11:07.198Z,7.80
2023-05-27T02:11:40.572Z,7.70
2023-05-27T02:12:14.012Z,7.80
2023-05-27T02:12:49.040Z,8.20
2023-05-27T02:13:22.479Z,8.00
2023-05-27T02:13:57.314Z,7.80
2023-05-27T02:14:32.340Z,8.10
2023-05-27T02:15:06.248Z,8.60
2023-05-27T02:15:39.570Z,8.50
2023-05-27T02:16:13.751Z,8.00
2023-05-27T02:16:48.526Z,8.30
2023-05-27T02:17:22.505Z,8.40
2023-05-27T02:17:57.407Z,7.90
2023-05-27T02:18:32.483Z,8.20
2023-05-27T02:19:07.971Z,8.50
2023-05-27T02:19:42.504Z,8.20
2023-05-27T02:20:17.787Z,8.20
2023-05-27T02:20:51.235Z,7.90
2023-05-27T02:21:25.991Z,7.80
2023-05-27T02:21:59.288Z,7.70
2023-05-27T02:22:32.672Z,7.90
2023-05-27T02:23:07.960Z,7.90
2023-05-27T02:23:41.555Z,8.10
2023-05-27T02:24:14.898Z,7.90
2023-05-27T02:24:48.328Z,8.00
2023-05-27T02:25:21.620Z,7.80
2023-05-27T02:25:54.982Z,8.10
2023-05-27T02:26:28.608Z,8.10
2023-05-27T02:27:02.742Z,7.80
2023-05-27T02:27:36.219Z,7.50
2023-05-27T02:28:09.611Z,7.70
2023-05-27T02:28:42.895Z,8.30
2023-05-27T02:29:16.395Z,7.70
2023-05-27T02:29:49.838Z,7.80
2023-05-27T02:30:23.723Z,8.00
2023-05-27T02:30:59.667Z,7.60
2023-05-27T02:31:33.141Z,8.00
2023-05-27T02:32:07.180Z,7.90
2023-05-27T02:32:40.580Z,7.50
2023-05-27T02:33:14.173Z,7.50
2023-05-27T02:33:47.732Z,7.80
2023-05-27T02:34:21.153Z,7.80
2023-05-27T02:34:56.727Z,7.40
2023-05-27T02:35:30.895Z,7.50
2023-05-27T02:36:04.423Z,8.00
2023-05-27T02:36:37.943Z,7.60
2023-05-27T02:37:11.228Z,7.90
2023-05-27T02:37:44.712Z,7.50
2023-05-27T02:38:18.154Z,7.50
2023-05-27T02:38:51.393Z,7.10
2023-05-27T02:39:24.747Z,7.50
2023-05-27T02:39:59.752Z,7.20
2023-05-27T02:40:34.281Z,7.10
2023-05-27T02:41:07.564Z,7.10
2023-05-27T02:41:41.360Z,7.30
2023-05-27T02:42:14.668Z,7.20
2023-05-27T02:42:48.180Z,7.10
2023-05-27T02:43:21.514Z,6.70
2023-05-27T02:43:55.965Z,6.60
2023-05-27T02:44:29.449Z,6.10
2023-05-27T02:45:05.027Z,7.10
2023-05-27T02:45:38.293Z,6.90
2023-05-27T02:46:12.888Z,6.80
2023-05-27T02:46:46.487Z,6.50
2023-05-27T02:47:20.541Z,7.10
2023-05-27T02:47:56.707Z,6.30
2023-05-27T02:48:30.197Z,6.60
2023-05-27T02:49:03.746Z,6.80
2023-05-27T02:49:37.074Z,6.90
2023-05-27T02:50:10.817Z,6.90
2023-05-27T02:50:44.146Z,7.30
2023-05-27T02:51:17.665Z,7.00
2023-05-27T02:51:51.112Z,7.10
2023-05-27T02:52:25.045Z,6.90
2023-05-27T02:52:58.875Z,6.90
2023-05-27T02:53:32.335Z,6.80
2023-05-27T02:54:06.142Z,7.30
2023-05-27T02:54:39.392Z,7.00
2023-05-27T02:55:12.810Z,6.70
2023-05-27T02:55:46.179Z,6.50
2023-05-27T02:56:19.601Z,6.70
2023-05-27T02:56:53.195Z,6.50
2023-05-27T02:57:26.522Z,6.60
2023-05-27T02:57:59.756Z,6.90
2023-05-27T02:58:33.277Z,6.70
2023-05-27T02:59:07.017Z,6.60
2023-05-27T02:59:40.334Z,6.90
2023-05-27T03:00:14.855Z,7.20
2023-05-27T03:00:48.266Z,6.80
2023-05-27T03:01:22.967Z,6.80
2023-05-27T03:01:56.297Z,6.90
2023-05-27T03:02:29.791Z,7.20
2023-05-27T03:03:06.683Z,7.30
2023-05-27T03:03:40.397Z,7.10
2023-05-27T03:04:14.064Z,7.30
2023-05-27T03:04:49.023Z,7.30
2023-05-27T03:05:22.932Z,7.50
2023-05-27T03:05:57.355Z,7.00
2023-05-27T03:06:30.787Z,7.40
2023-05-27T03:07:04.181Z,7.20
2023-05-27T03:07:37.609Z,7.40
2023-05-27T03:08:10.966Z,7.20
2023-05-27T03:08:44.430Z,6.90
2023-05-27T03:09:17.893Z,7.20
2023-05-27T03:09:51.205Z,7.20
2023-05-27T03:10:24.438Z,7.10
2023-05-27T03:10:57.874Z,7.20
2023-05-27T03:11:31.383Z,7.20
2023-05-27T03:12:09.361Z,7.00
2023-05-27T03:12:42.862Z,7.00
2023-05-27T03:13:16.317Z,7.50
2023-05-27T03:13:49.621Z,7.00
2023-05-27T03:14:22.991Z,7.40
2023-05-27T03:14:56.249Z,7.10
2023-05-27T03:15:31.183Z,7.10
2023-05-27T03:16:04.750Z,7.20
2023-05-27T03:16:38.098Z,6.90
2023-05-27T03:17:11.437Z,6.90
2023-05-27T03:17:44.737Z,7.20
2023-05-27T03:18:18.376Z,7.30
2023-05-27T03:18:51.990Z,7.10
2023-05-27T03:19:25.432Z,7.30
2023-05-27T03:19:58.815Z,7.20
2023-05-27T03:20:32.310Z,6.50
2023-05-27T03:21:05.929Z,6.90
2023-05-27T03:21:39.181Z,7.40
2023-05-27T03:22:13.639Z,6.80
2023-05-27T03:22:47.745Z,7.10
2023-05-27T03:23:21.313Z,6.50
2023-05-27T03:23:54.885Z,6.70
2023-05-27T03:24:28.284Z,6.70
2023-05-27T03:25:01.700Z,7.20
2023-05-27T03:25:35.381Z,7.10
2023-05-27T03:26:09.483Z,6.40
2023-05-27T03:26:43.022Z,6.70
2023-05-27T03:27:16.619Z,7.30
2023-05-27T03:27:51.368Z,7.00
2023-05-27T03:28:24.683Z,6.90
2023-05-27T03:28:58.053Z,6.90
2023-05-27T03:29:32.771Z,7.20
2023-05-27T03:30:07.128Z,6.90
2023-05-27T03:30:44.612Z,7.10
2023-05-27T03:31:25.952Z,6.70
2023-05-27T03:32:05.106Z,6.70
2023-05-27T03:32:39.047Z,6.80
2023-05-27T03:33:12.543Z,6.50
2023-05-27T03:33:46.107Z,6.90
2023-05-27T03:34:19.424Z,7.10
2023-05-27T03:34:52.740Z,7.50
2023-05-27T03:35:26.311Z,7.30
2023-05-27T03:35:59.909Z,7.30
2023-05-27T03:36:38.448Z,6.60
2023-05-27T03:37:11.815Z,7.20
2023-05-27T03:37:54.419Z,7.00
2023-05-27T03:38:27.893Z,7.10
2023-05-27T03:39:01.910Z,7.30
2023-05-27T03:39:37.272Z,7.70
2023-05-27T03:40:11.144Z,6.90
2023-05-27T03:40:44.506Z,7.30
2023-05-27T03:41:17.859Z,7.10
2023-05-27T03:41:51.436Z,7.60
2023-05-27T03:42:24.686Z,7.50
2023-05-27T03:42:58.075Z,7.10
2023-05-27T03:43:31.470Z,7.20
2023-05-27T03:44:05.023Z,7.10
2023-05-27T03:44:38.346Z,7.20
2023-05-27T03:45:11.875Z,7.00
2023-05-27T03:45:45.761Z,6.80
2023-05-27T03:46:19.118Z,7.30
2023-05-27T03:46:52.581Z,7.60
2023-05-27T03:47:25.958Z,7.40
2023-05-27T03:47:59.313Z,7.30
2023-05-27T03:48:32.636Z,7.50
2023-05-27T03:49:05.927Z,7.60
2023-05-27T03:49:39.642Z,7.30
2023-05-27T03:50:13.019Z,7.30
2023-05-27T03:50:46.468Z,7.00
2023-05-27T03:51:21.990Z,6.60
2023-05-27T03:51:55.832Z,6.70
2023-05-27T03:52:29.265Z,7.00
2023-05-27T03:53:02.526Z,7.10
2023-05-27T03:53:36.791Z,6.70
2023-05-27T03:54:10.471Z,7.20
2023-05-27T03:54:43.939Z,7.00
2023-05-27T03:55:22.281Z,7.10
2023-05-27T03:55:56.061Z,7.00
2023-05-27T03:56:30.166Z,7.00
2023-05-27T03:57:04.082Z,7.10
2023-05-27T03:57:37.578Z,6.90
2023-05-27T03:58:14.719Z,6.90
2023-05-27T03:58:48.614Z,7.00
2023-05-27T03:59:22.198Z,6.90
2023-05-27T03:59:56.289Z,7.00
2023-05-27T04:00:29.755Z,7.10
2023-05-27T04:01:03.310Z,7.30
2023-05-27T04:01:36.880Z,7.40
2023-05-27T04:02:10.158Z,7.30
2023-05-27T04:02:43.571Z,7.50
2023-05-27T04:03:17.205Z,7.00
2023-05-27T04:03:51.373Z,7.00
2023-05-27T04:04:24.654Z,7.30
2023-05-27T04:05:00.950Z,7.30
2023-05-27T04:05:35.685Z,7.10
2023-05-27T04:06:10.391Z,7.30
2023-05-27T04:06:43.921Z,7.10
2023-05-27T04:07:19.361Z,7.30
2023-05-27T04:07:56.224Z,7.30
2023-05-27T04:08:29.457Z,7.10
2023-05-27T04:09:04.419Z,7.20
2023-05-27T04:09:37.727Z,7.40
2023-05-27T04:10:12.219Z,7.70
2023-05-27T04:10:45.935Z,7.40
2023-05-27T04:11:20.135Z,7.30
2023-05-27T04:11:54.442Z,7.40
2023-05-27T04:12:30.212Z,6.90
2023-05-27T04:13:03.641Z,7.00
2023-05-27T04:13:36.968Z,7.00
2023-05-27T04:14:11.037Z,7.20
2023-05-27T04:14:44.673Z,7.40
2023-05-27T04:15:17.950Z,6.90
2023-05-27T04:15:51.602Z,7.50
2023-05-27T04:16:26.209Z,7.30
2023-05-27T04:16:59.628Z,7.10
2023-05-27T04:17:33.016Z,7.30
2023-05-27T04:18:06.442Z,7.30
2023-05-27T04:18:39.848Z,7.00
2023-05-27T04:19:14.963Z,7.30
2023-05-27T04:19:50.198Z,7.10
2023-05-27T04:20:24.696Z,7.50
2023-05-27T04:21:01.362Z,6.90
2023-05-27T04:21:34.817Z,7.20
2023-05-27T04:22:08.217Z,7.10
2023-05-27T04:22:42.735Z,6.90
2023-05-27T04:23:16.123Z,6.80
2023-05-27T04:23:50.001Z,7.20
2023-05-27T04:24:23.477Z,7.00
2023-05-27T04:24:56.833Z,7.30
2023-05-27T04:25:30.145Z,7.00
2023-05-27T04:26:10.329Z,7.00
2023-05-27T04:26:47.255Z,6.90
2023-05-27T04:27:21.942Z,7.60
2023-05-27T04:27:55.332Z,7.00
2023-05-27T04:28:29.134Z,7.30
2023-05-27T04:29:02.980Z,6.90
2023-05-27T04:30:27.316Z,6.80
2023-05-27T04:31:01.478Z,7.40
2023-05-27T04:31:41.611Z,6.80
2023-05-27T04:32:21.933Z,7.40
2023-05-27T04:32:55.989Z,7.00
2023-05-27T04:33:29.369Z,7.10
2023-05-27T04:34:04.210Z,7.00
2023-05-27T04:34:38.141Z,6.90
2023-05-27T04:35:12.111Z,6.50
2023-05-27T04:35:45.613Z,7.30
2023-05-27T04:36:19.639Z,7.30
2023-05-27T04:37:04.133Z,7.10
2023-05-27T04:37:37.997Z,6.80
2023-05-27T04:38:18.080Z,6.70
2023-05-27T04:39:06.882Z,6.80
2023-05-27T04:39:46.933Z,6.70
2023-05-27T04:40:20.857Z,6.90
2023-05-27T04:41:15.456Z,6.50
2023-05-27T04:42:16.762Z,6.60
2023-05-27T04:42:54.782Z,6.60
2023-05-27T04:43:30.703Z,7.00
2023-05-27T04:44:04.058Z,6.70
2023-05-27T04:44:42.126Z,6.90
2023-05-27T04:45:15.638Z,6.80
2023-05-27T04:45:49.629Z,6.90
2023-05-27T04:46:23.246Z,7.10
2023-05-27T04:46:57.103Z,6.40
2023-05-27T04:47:31.943Z,6.30
2023-05-27T04:48:05.382Z,7.10
2023-05-27T04:48:38.833Z,6.70
2023-05-27T04:49:12.073Z,6.70
2023-05-27T04:49:48.067Z,6.60
2023-05-27T04:50:21.935Z,7.20
2023-05-27T04:50:55.354Z,6.80
2023-05-27T04:51:28.860Z,6.50
2023-05-27T04:52:02.920Z,6.60
2023-05-27T04:52:45.074Z,6.70
2023-05-27T04:53:19.533Z,6.70
2023-05-27T04:53:53.022Z,6.60
2023-05-27T04:54:28.238Z,6.90
2023-05-27T04:55:02.782Z,6.60
2023-05-27T04:55:43.849Z,6.80
2023-05-27T04:56:18.573Z,6.40
2023-05-27T04:56:53.336Z,6.20
2023-05-27T04:57:30.234Z,6.40
2023-05-27T04:58:04.973Z,6.80
2023-05-27T04:58:40.803Z,6.50
2023-05-27T04:59:18.127Z,6.80
2023-05-27T05:00:19.442Z,6.40
2023-05-27T05:00:54.806Z,6.60
2023-05-27T05:01:30.541Z,6.20
2023-05-27T05:02:12.150Z,6.20
2023-05-27T05:03:02.625Z,6.40
2023-05-27T05:03:38.508Z,6.40
2023-05-27T05:04:14.815Z,6.70
2023-05-27T05:04:54.456Z,6.10
2023-05-27T05:05:29.573Z,6.80
2023-05-27T05:06:04.320Z,6.40
2023-05-27T05:06:39.292Z,6.20
2023-05-27T05:07:12.618Z,6.60
2023-05-27T05:07:46.040Z,6.50
2023-05-27T05:08:21.370Z,7.20
2023-05-27T05:08:55.089Z,6.70
2023-05-27T05:09:28.580Z,6.50
2023-05-27T05:10:03.881Z,5.90
2023-05-27T05:10:41.628Z,6.60
2023-05-27T05:11:15.703Z,6.30
2023-05-27T05:11:49.366Z,6.80
2023-05-27T05:12:23.811Z,6.00
2023-05-27T05:12:57.399Z,6.60
2023-05-27T05:13:31.096Z,6.90
2023-05-27T05:14:04.705Z,6.30
2023-05-27T05:14:38.221Z,6.50
2023-05-27T05:15:11.629Z,6.40
2023-05-27T05:15:45.073Z,5.80
2023-05-27T05:16:18.456Z,5.80
2023-05-27T05:16:51.893Z,6.10
2023-05-27T05:17:25.872Z,6.30
2023-05-27T05:18:00.835Z,5.90
2023-05-27T05:18:35.709Z,6.30
2023-05-27T05:19:11.125Z,5.90
2023-05-27T05:19:46.515Z,6.10
2023-05-27T05:20:20.221Z,6.00
2023-05-27T05:20:53.861Z,6.70
2023-05-27T05:21:32.724Z,6.20
2023-05-27T05:22:06.648Z,6.20
2023-05-27T05:22:40.151Z,6.20
2023-05-27T05:23:13.564Z,6.00
2023-05-27T05:23:48.161Z,6.20
2023-05-27T05:24:21.612Z,5.80
2023-05-27T05:24:55.924Z,5.90
2023-05-27T05:25:39.082Z,6.00
2023-05-27T05:26:13.056Z,6.20
2023-05-27T05:26:47.688Z,6.20
2023-05-27T05:27:20.976Z,5.80
2023-05-27T05:27:54.867Z,5.90
2023-05-27T05:28:28.623Z,5.70
2023-05-27T05:29:01.973Z,6.20
2023-05-27T05:29:35.578Z,6.30
2023-05-27T05:30:09.520Z,5.70
2023-05-27T05:30:42.739Z,6.00
2023-05-27T05:31:16.486Z,6.30
2023-05-27T05:31:50.286Z,6.20
2023-05-27T05:32:24.686Z,6.40
2023-05-27T05:32:59.388Z,6.20
2023-05-27T05:33:35.553Z,6.00
2023-05-27T05:34:09.084Z,6.40
2023-05-27T05:34:43.025Z,6.20
2023-05-27T05:35:16.738Z,6.00
2023-05-27T05:35:54.106Z,6.10
2023-05-27T05:36:31.668Z,6.20
2023-05-27T05:37:08.200Z,6.10
2023-05-27T05:37:41.572Z,5.80
2023-05-27T05:38:14.884Z,6.00
2023-05-27T05:38:48.534Z,5.90
2023-05-27T05:39:22.080Z,6.20
2023-05-27T05:39:58.100Z,6.30
2023-05-27T05:40:31.706Z,6.20
2023-05-27T05:41:19.150Z,6.00
2023-05-27T05:41:53.019Z,5.90
2023-05-27T05:42:26.552Z,6.50
2023-05-27T05:43:00.462Z,6.20
2023-05-27T05:43:33.733Z,6.30
2023-05-27T05:44:07.624Z,5.90
2023-05-27T05:44:41.333Z,6.30
2023-05-27T05:45:14.749Z,6.20
2023-05-27T05:45:48.697Z,6.40
2023-05-27T05:46:23.141Z,6.30
2023-05-27T05:46:56.639Z,5.70
2023-05-27T05:47:31.035Z,6.10
2023-05-27T05:48:11.634Z,6.70
2023-05-27T05:48:47.840Z,5.70
2023-05-27T05:49:25.588Z,6.10
2023-05-27T05:49:59.223Z,6.00
2023-05-27T05:50:33.877Z,6.40
2023-05-27T05:51:07.922Z,5.70
2023-05-27T05:51:42.047Z,6.10
2023-05-27T05:52:15.732Z,5.60
2023-05-27T05:52:49.187Z,6.30
2023-05-27T05:53:22.608Z,6.10
2023-05-27T05:53:56.356Z,5.90
2023-05-27T05:54:29.888Z,5.70
2023-05-27T05:55:04.542Z,6.10
2023-05-27T05:55:38.694Z,5.90
2023-05-27T05:56:12.238Z,5.80
2023-05-27T05:56:45.912Z,6.10
2023-05-27T05:57:19.420Z,6.00
2023-05-27T05:57:52.671Z,6.00
2023-05-27T05:58:26.096Z,6.40
2023-05-27T05:58:59.344Z,6.30
2023-05-27T05:59:33.393Z,5.90
2023-05-27T06:00:09.391Z,6.10
2023-05-27T06:00:51.954Z,6.00
2023-05-27T06:01:51.321Z,5.60
2023-05-27T06:02:26.767Z,5.90
2023-05-27T06:03:00.360Z,6.00
2023-05-27T06:04:00.756Z,6.10
2023-05-27T06:05:34.385Z,5.70
2023-05-27T06:06:07.990Z,6.30
2023-05-27T06:06:46.459Z,5.90
2023-05-27T06:07:35.215Z,6.10
2023-05-27T06:08:14.604Z,5.80
2023-05-27T06:08:52.272Z,5.90
2023-05-27T06:09:26.827Z,6.10
2023-05-27T06:10:02.210Z,6.30
2023-05-27T06:10:42.283Z,6.20
2023-05-27T06:11:15.883Z,5.60
2023-05-27T06:11:50.557Z,5.70
2023-05-27T06:12:25.634Z,6.20
2023-05-27T06:12:59.530Z,5.90
2023-05-27T06:13:32.967Z,6.40
2023-05-27T06:14:06.578Z,5.70
2023-05-27T06:14:39.972Z,6.10
2023-05-27T06:15:13.673Z,5.90
2023-05-27T06:15:48.739Z,5.80
2023-05-27T06:16:22.876Z,5.90
2023-05-27T06:16:56.476Z,6.00
2023-05-27T06:17:29.872Z,5.30
2023-05-27T06:18:03.450Z,5.80
2023-05-27T06:18:37.538Z,5.80
2023-05-27T06:19:10.913Z,5.50
2023-05-27T06:19:44.169Z,5.70
2023-05-27T06:20:18.148Z,6.00
2023-05-27T06:20:51.676Z,5.40
2023-05-27T06:21:25.500Z,5.70
2023-05-27T06:22:21.984Z,5.70
2023-05-27T06:23:30.589Z,5.30
2023-05-27T06:24:20.477Z,5.60
2023-05-27T06:24:58.034Z,5.70
2023-05-27T06:25:44.190Z,4.80
2023-05-27T06:26:17.716Z,5.10
2023-05-27T06:26:55.453Z,5.30
2023-05-27T06:27:29.261Z,5.20
2023-05-27T06:28:02.625Z,4.90
2023-05-27T06:28:36.113Z,4.80
2023-05-27T06:29:09.718Z,4.60
2023-05-27T06:29:43.061Z,4.70
2023-05-27T06:30:16.867Z,5.00
2023-05-27T06:30:51.517Z,5.20
2023-05-27T06:31:25.149Z,4.60
2023-05-27T06:31:58.779Z,4.60
2023-05-27T06:32:32.430Z,5.20
2023-05-27T06:33:06.129Z,4.20
2023-05-27T06:33:42.160Z,4.50
2023-05-27T06:34:17.250Z,5.00
2023-05-27T06:34:51.019Z,4.90
2023-05-27T06:35:24.678Z,4.80
2023-05-27T06:35:58.127Z,4.50
2023-05-27T06:36:31.948Z,4.40
2023-05-27T06:37:05.750Z,4.50
2023-05-27T06:37:39.200Z,4.60
2023-05-27T06:38:13.100Z,4.00
2023-05-27T06:38:46.690Z,4.20
2023-05-27T06:39:20.277Z,4.80
2023-05-27T06:39:53.698Z,4.60
2023-05-27T06:40:27.610Z,4.60
2023-05-27T06:41:01.117Z,4.20
2023-05-27T06:41:34.693Z,4.70
2023-05-27T06:42:30.810Z,4.10
2023-05-27T06:43:19.083Z,4.40
2023-05-27T06:44:06.781Z,4.20
2023-05-27T06:44:48.856Z,4.10
2023-05-27T06:45:28.554Z,4.50
2023-05-27T06:46:11.394Z,4.20
2023-05-27T06:47:07.746Z,4.10
2023-05-27T06:47:41.604Z,3.50
2023-05-27T06:48:14.976Z,4.10
2023-05-27T06:48:48.380Z,4.30
2023-05-27T06:49:21.779Z,3.90
2023-05-27T06:49:55.537Z,4.00
2023-05-27T06:50:28.924Z,3.70
2023-05-27T06:51:02.538Z,3.80
2023-05-27T06:51:36.641Z,4.00
2023-05-27T06:52:11.885Z,4.20
2023-05-27T06:53:15.900Z,4.10
2023-05-27T06:54:01.810Z,4.10
2023-05-27T06:54:48.307Z,4.00
2023-05-27T06:55:50.763Z,4.60
2023-05-27T06:56:44.606Z,4.20
2023-05-27T06:57:36.628Z,4.10
2023-05-27T06:58:18.430Z,4.70
2023-05-27T06:59:02.076Z,4.30
2023-05-27T06:59:35.713Z,4.10
2023-05-27T07:00:09.695Z,4.60
2023-05-27T07:00:49.700Z,3.90
2023-05-27T07:01:43.844Z,3.60
2023-05-27T07:02:20.088Z,3.90
2023-05-27T07:02:53.441Z,4.50
2023-05-27T07:03:26.962Z,4.30
2023-05-27T07:04:00.635Z,4.10
2023-05-27T07:04:57.261Z,4.10
2023-05-27T07:05:30.860Z,4.50
2023-05-27T07:06:05.100Z,4.00
2023-05-27T07:06:44.764Z,4.00
2023-05-27T07:07:18.401Z,4.10
2023-05-27T07:07:51.793Z,3.90
2023-05-27T07:08:25.580Z,4.00
2023-05-27T07:09:12.625Z,4.20
2023-05-27T07:09:46.117Z,3.70
2023-05-27T07:10:19.471Z,4.10
2023-05-27T07:10:53.185Z,3.70
2023-05-27T07:11:27.728Z,3.70
2023-05-27T07:12:09.929Z,4.00
2023-05-27T07:13:00.015Z,4.00
2023-05-27T07:13:40.684Z,3.50
2023-05-27T07:14:14.547Z,3.80
2023-05-27T07:14:48.708Z,3.60
2023-05-27T07:15:21.968Z,3.70
2023-05-27T07:15:55.671Z,3.70
2023-05-27T07:16:29.121Z,3.70
2023-05-27T07:17:02.841Z,3.80
2023-05-27T07:17:36.565Z,3.60
2023-05-27T07:18:10.114Z,3.60
2023-05-27T07:18:44.580Z,3.90
2023-05-27T07:19:18.432Z,3.60
2023-05-27T07:19:55.942Z,3.70
2023-05-27T07:20:29.409Z,4.00
2023-05-27T07:21:02.869Z,4.20
2023-05-27T07:21:37.897Z,4.00
2023-05-27T07:22:14.987Z,3.80
2023-05-27T07:22:48.354Z,3.80
2023-05-27T07:23:22.094Z,3.90
2023-05-27T07:24:05.534Z,3.60
2023-05-27T07:24:40.340Z,3.90
2023-05-27T07:25:13.759Z,3.70
2023-05-27T07:25:47.166Z,3.30
2023-05-27T07:26:20.502Z,3.40
2023-05-27T07:26:53.824Z,3.40
2023-05-27T07:27:27.347Z,3.20
2023-05-27T07:28:04.196Z,3.70
2023-05-27T07:28:38.680Z,3.60
2023-05-27T07:29:28.302Z,3.70
2023-05-27T07:30:01.586Z,3.80
2023-05-27T07:31:05.284Z,3.60
2023-05-27T07:31:40.911Z,3.80
2023-05-27T07:32:19.246Z,3.70
2023-05-27T07:32:53.195Z,3.50
2023-05-27T07:33:26.686Z,3.40
2023-05-27T07:34:00.079Z,3.50
2023-05-27T07:34:33.658Z,3.50
2023-05-27T07:35:07.507Z,3.50
2023-05-27T07:35:41.800Z,3.70
2023-05-27T07:36:15.223Z,3.40
2023-05-27T07:36:49.725Z,3.30
2023-05-27T07:37:24.827Z,3.70
2023-05-27T07:37:58.173Z,3.50
2023-05-27T07:38:32.079Z,3.20
2023-05-27T07:39:05.606Z,3.30
2023-05-27T07:39:39.257Z,3.20
2023-05-27T07:40:13.028Z,3.40
2023-05-27T07:40:46.986Z,3.20
2023-05-27T07:41:20.302Z,3.50
2023-05-27T07:41:53.586Z,3.10
2023-05-27T07:42:27.136Z,3.30
2023-05-27T07:43:00.584Z,3.30
2023-05-27T07:43:34.061Z,3.10
2023-05-27T07:44:07.655Z,3.20
2023-05-27T07:44:41.994Z,3.60
2023-05-27T07:45:15.783Z,3.10
2023-05-27T07:45:49.571Z,3.20
2023-05-27T07:46:23.588Z,3.20
2023-05-27T07:46:57.116Z,3.10
2023-05-27T07:47:31.266Z,3.00
2023-05-27T07:48:04.602Z,3.10
2023-05-27T07:48:37.992Z,3.20
2023-05-27T07:49:11.471Z,3.00
2023-05-27T07:49:52.848Z,2.90
2023-05-27T07:50:35.091Z,3.40
2023-05-27T07:51:12.387Z,3.00
2023-05-27T07:51:45.769Z,3.50
2023-05-27T07:52:19.353Z,3.30
2023-05-27T07:52:52.779Z,3.20
2023-05-27T07:53:38.056Z,3.00
2023-05-27T07:54:11.690Z,3.00
2023-05-27T07:54:54.642Z,3.20
2023-05-27T07:55:29.879Z,2.60